sensor_id;sensor_type;location;lat;lon;timestamp;pressure;altitude;pressure_sealevel;temperature;humidity
68366;BME280;55283;51.466;5.478;2023-02-28T00:01:22;102909.16;;;19.42;32.66
68366;BME280;55283;51.466;5.478;2023-02-28T00:03:48;102901.16;;;19.41;32.83
68366;BME280;55283;51.466;5.478;2023-02-28T00:06:14;102901.94;;;19.38;33.02
68366;BME280;55283;51.466;5.478;2023-02-28T00:08:42;102900.75;;;19.39;32.81
68366;BME280;55283;51.466;5.478;2023-02-28T00:11:11;102910.72;;;19.40;32.73
68366;BME280;55283;51.466;5.478;2023-02-28T00:13:41;102900.31;;;19.37;32.83
68366;BME280;55283;51.466;5.478;2023-02-28T00:16:10;102909.94;;;19.39;32.67
68366;BME280;55283;51.466;5.478;2023-02-28T00:18:36;102909.91;;;19.36;32.60
68366;BME280;55283;51.466;5.478;2023-02-28T00:21:05;102911.94;;;19.39;32.74
68366;BME280;55283;51.466;5.478;2023-02-28T00:23:31;102901.94;;;19.38;32.62
68366;BME280;55283;51.466;5.478;2023-02-28T00:25:56;102904.31;;;19.36;32.52
68366;BME280;55283;51.466;5.478;2023-02-28T00:28:22;102905.91;;;19.37;32.59
68366;BME280;55283;51.466;5.478;2023-02-28T00:30:47;102901.06;;;19.34;32.71
68366;BME280;55283;51.466;5.478;2023-02-28T00:33:13;102907.53;;;19.38;32.60
68366;BME280;55283;51.466;5.478;2023-02-28T00:35:39;102905.50;;;19.35;32.61
68366;BME280;55283;51.466;5.478;2023-02-28T00:38:07;102905.88;;;19.33;32.35
68366;BME280;55283;51.466;5.478;2023-02-28T00:40:32;102901.06;;;19.30;32.54
68366;BME280;55283;51.466;5.478;2023-02-28T00:43:07;102910.66;;;19.33;32.70
68366;BME280;55283;51.466;5.478;2023-02-28T00:45:34;102903.44;;;19.32;32.23
68366;BME280;55283;51.466;5.478;2023-02-28T00:48:00;102906.63;;;19.27;32.32
68366;BME280;55283;51.466;5.478;2023-02-28T00:50:26;102901.06;;;19.30;32.37
68366;BME280;55283;51.466;5.478;2023-02-28T00:52:51;102909.41;;;19.27;32.69
68366;BME280;55283;51.466;5.478;2023-02-28T00:55:16;102900.63;;;19.28;32.38
68366;BME280;55283;51.466;5.478;2023-02-28T00:57:43;102901.03;;;19.27;32.42
68366;BME280;55283;51.466;5.478;2023-02-28T01:00:09;102900.25;;;19.30;32.43
68366;BME280;55283;51.466;5.478;2023-02-28T01:02:37;102899.81;;;19.28;32.50
68366;BME280;55283;51.466;5.478;2023-02-28T01:05:03;102915.00;;;19.27;32.31
68366;BME280;55283;51.466;5.478;2023-02-28T01:07:28;102909.00;;;19.28;32.37
68366;BME280;55283;51.466;5.478;2023-02-28T01:09:53;102909.44;;;19.30;32.12
68366;BME280;55283;51.466;5.478;2023-02-28T01:12:19;102916.22;;;19.29;32.23
68366;BME280;55283;51.466;5.478;2023-02-28T01:14:46;102921.44;;;19.34;32.18
68366;BME280;55283;51.466;5.478;2023-02-28T01:17:12;102923.47;;;19.37;32.25
68366;BME280;55283;51.466;5.478;2023-02-28T01:19:37;102922.34;;;19.42;32.53
68366;BME280;55283;51.466;5.478;2023-02-28T01:22:06;102923.13;;;19.42;32.49
68366;BME280;55283;51.466;5.478;2023-02-28T01:24:32;102922.78;;;19.44;32.33
68366;BME280;55283;51.466;5.478;2023-02-28T01:27:00;102926.72;;;19.43;32.34
68366;BME280;55283;51.466;5.478;2023-02-28T01:29:25;102927.97;;;19.45;32.39
68366;BME280;55283;51.466;5.478;2023-02-28T01:31:53;102925.97;;;19.46;32.48
68366;BME280;55283;51.466;5.478;2023-02-28T01:34:21;102931.97;;;19.44;32.52
68366;BME280;55283;51.466;5.478;2023-02-28T01:36:49;102915.53;;;19.43;32.42
68366;BME280;55283;51.466;5.478;2023-02-28T01:39:14;102919.53;;;19.42;32.67
68366;BME280;55283;51.466;5.478;2023-02-28T01:41:40;102916.31;;;19.40;32.59
68366;BME280;55283;51.466;5.478;2023-02-28T01:44:54;102914.75;;;19.42;32.59
68366;BME280;55283;51.466;5.478;2023-02-28T01:46:52;102919.19;;;19.43;32.38
68366;BME280;55283;51.466;5.478;2023-02-28T01:49:18;102909.56;;;19.41;32.32
68366;BME280;55283;51.466;5.478;2023-02-28T01:51:48;102915.53;;;19.43;32.19
68366;BME280;55283;51.466;5.478;2023-02-28T01:54:24;102908.34;;;19.42;32.28
68366;BME280;55283;51.466;5.478;2023-02-28T01:59:29;102905.19;;;19.43;32.18
68366;BME280;55283;51.466;5.478;2023-02-28T02:01:58;102892.38;;;19.42;32.03
68366;BME280;55283;51.466;5.478;2023-02-28T02:04:31;102876.69;;;19.31;31.98
68366;BME280;55283;51.466;5.478;2023-02-28T02:06:58;102890.81;;;19.45;32.17
68366;BME280;55283;51.466;5.478;2023-02-28T02:09:24;102893.22;;;19.47;31.93
68366;BME280;55283;51.466;5.478;2023-02-28T02:11:49;102892.00;;;19.44;32.10
68366;BME280;55283;51.466;5.478;2023-02-28T02:17:38;102878.03;;;19.48;32.18
68366;BME280;55283;51.466;5.478;2023-02-28T02:37:14;102869.94;;;19.35;32.24
68366;BME280;55283;51.466;5.478;2023-02-28T02:40:25;102876.72;;;19.34;32.36
68366;BME280;55283;51.466;5.478;2023-02-28T02:43:00;102871.50;;;19.33;32.30
68366;BME280;55283;51.466;5.478;2023-02-28T02:45:36;102879.44;;;19.27;32.18
68366;BME280;55283;51.466;5.478;2023-02-28T02:48:07;102878.25;;;19.28;32.16
68366;BME280;55283;51.466;5.478;2023-02-28T02:50:39;102879.44;;;19.27;32.11
68366;BME280;55283;51.466;5.478;2023-02-28T02:53:07;102871.84;;;19.28;32.23
68366;BME280;55283;51.466;5.478;2023-02-28T02:55:38;102881.03;;;19.28;32.10
68366;BME280;55283;51.466;5.478;2023-02-28T02:58:11;102881.03;;;19.28;32.11
68366;BME280;55283;51.466;5.478;2023-02-28T03:00:45;102880.25;;;19.28;32.04
68366;BME280;55283;51.466;5.478;2023-02-28T03:03:12;102883.84;;;19.28;31.96
68366;BME280;55283;51.466;5.478;2023-02-28T03:05:46;102887.03;;;19.27;32.04
68366;BME280;55283;51.466;5.478;2023-02-28T03:08:12;102881.03;;;19.25;32.02
68366;BME280;55283;51.466;5.478;2023-02-28T03:10:59;102892.19;;;19.25;32.12
68366;BME280;55283;51.466;5.478;2023-02-28T03:24:11;102877.78;;;19.22;31.67
68366;BME280;55283;51.466;5.478;2023-02-28T03:26:49;102872.97;;;19.19;31.84
68366;BME280;55283;51.466;5.478;2023-02-28T03:29:26;102875.00;;;19.22;31.92
68366;BME280;55283;51.466;5.478;2023-02-28T03:32:03;102874.63;;;19.24;31.71
68366;BME280;55283;51.466;5.478;2023-02-28T03:34:38;102876.22;;;19.25;31.75
68366;BME280;55283;51.466;5.478;2023-02-28T03:37:11;102877.03;;;19.26;31.77
68366;BME280;55283;51.466;5.478;2023-02-28T03:39:54;102875.47;;;19.28;31.72
68366;BME280;55283;51.466;5.478;2023-02-28T03:42:29;102871.88;;;19.31;31.78
68366;BME280;55283;51.466;5.478;2023-02-28T03:44:59;102874.31;;;19.33;31.90
68366;BME280;55283;51.466;5.478;2023-02-28T03:48:02;102869.19;;;19.38;31.85
68366;BME280;55283;51.466;5.478;2023-02-28T03:50:35;102866.34;;;19.35;31.87
68366;BME280;55283;51.466;5.478;2023-02-28T03:53:11;102877.13;;;19.36;31.77
68366;BME280;55283;51.466;5.478;2023-02-28T03:55:45;102882.38;;;19.38;31.69
68366;BME280;55283;51.466;5.478;2023-02-28T03:58:29;102881.16;;;19.39;31.59
68366;BME280;55283;51.466;5.478;2023-02-28T04:01:09;102883.97;;;19.42;31.79
68366;BME280;55283;51.466;5.478;2023-02-28T04:03:39;102879.59;;;19.41;31.72
68366;BME280;55283;51.466;5.478;2023-02-28T04:06:08;102876.78;;;19.41;31.67
68366;BME280;55283;51.466;5.478;2023-02-28T04:08:40;102875.16;;;19.40;31.60
68366;BME280;55283;51.466;5.478;2023-02-28T04:14:03;102882.75;;;19.40;31.54
68366;BME280;55283;51.466;5.478;2023-02-28T04:16:31;102879.19;;;19.43;31.46
68366;BME280;55283;51.466;5.478;2023-02-28T04:18:59;102885.97;;;19.42;31.54
68366;BME280;55283;51.466;5.478;2023-02-28T04:21:31;102879.97;;;19.40;31.59
68366;BME280;55283;51.466;5.478;2023-02-28T04:23:56;102879.94;;;19.36;31.37
68366;BME280;55283;51.466;5.478;2023-02-28T04:26:33;102886.75;;;19.39;31.63
68366;BME280;55283;51.466;5.478;2023-02-28T04:28:59;102889.13;;;19.37;31.49
68366;BME280;55283;51.466;5.478;2023-02-28T04:31:25;102893.13;;;19.36;31.48
68366;BME280;55283;51.466;5.478;2023-02-28T04:33:50;102886.31;;;19.37;31.52
68366;BME280;55283;51.466;5.478;2023-02-28T04:36:16;102881.94;;;19.36;31.41
68366;BME280;55283;51.466;5.478;2023-02-28T04:39:00;102896.34;;;19.38;31.42
68366;BME280;55283;51.466;5.478;2023-02-28T04:41:25;102894.75;;;19.40;31.50
68366;BME280;55283;51.466;5.478;2023-02-28T04:43:51;102892.78;;;19.41;31.40
68366;BME280;55283;51.466;5.478;2023-02-28T04:46:18;102899.97;;;19.42;31.54
68366;BME280;55283;51.466;5.478;2023-02-28T04:48:44;102896.81;;;19.43;31.31
68366;BME280;55283;51.466;5.478;2023-02-28T04:51:14;102892.00;;;19.44;31.11
68366;BME280;55283;51.466;5.478;2023-02-28T04:53:42;102899.16;;;19.41;31.37
68366;BME280;55283;51.466;5.478;2023-02-28T04:56:11;102893.19;;;19.43;31.53
68366;BME280;55283;51.466;5.478;2023-02-28T04:58:42;102901.53;;;19.39;31.12
68366;BME280;55283;51.466;5.478;2023-02-28T05:01:28;102892.72;;;19.37;31.17
68366;BME280;55283;51.466;5.478;2023-02-28T05:03:56;102899.50;;;19.36;31.41
68366;BME280;55283;51.466;5.478;2023-02-28T05:06:23;102896.28;;;19.34;31.38
68366;BME280;55283;51.466;5.478;2023-02-28T05:08:52;102885.16;;;19.38;31.36
68366;BME280;55283;51.466;5.478;2023-02-28T05:11:29;102889.56;;;19.39;31.14
68366;BME280;55283;51.466;5.478;2023-02-28T05:14:03;102888.34;;;19.40;31.24
68366;BME280;55283;51.466;5.478;2023-02-28T05:16:32;102890.75;;;19.38;31.27
68366;BME280;55283;51.466;5.478;2023-02-28T05:18:57;102907.13;;;19.39;31.39
68366;BME280;55283;51.466;5.478;2023-02-28T05:21:31;102906.75;;;19.41;31.28
68366;BME280;55283;51.466;5.478;2023-02-28T05:23:59;102903.53;;;19.39;31.30
68366;BME280;55283;51.466;5.478;2023-02-28T05:26:26;102908.72;;;19.40;31.22
68366;BME280;55283;51.466;5.478;2023-02-28T05:28:52;102907.94;;;19.40;31.21
68366;BME280;55283;51.466;5.478;2023-02-28T05:31:18;102911.13;;;19.38;31.10
68366;BME280;55283;51.466;5.478;2023-02-28T05:33:46;102907.91;;;19.36;31.06
68366;BME280;55283;51.466;5.478;2023-02-28T05:36:12;102913.13;;;19.38;31.17
68366;BME280;55283;51.466;5.478;2023-02-28T05:38:37;102918.66;;;19.34;31.03
68366;BME280;55283;51.466;5.478;2023-02-28T05:41:10;102901.88;;;19.34;30.96
68366;BME280;55283;51.466;5.478;2023-02-28T05:43:36;102909.91;;;19.36;31.06
68366;BME280;55283;51.466;5.478;2023-02-28T05:46:22;102913.94;;;19.38;31.47
68366;BME280;55283;51.466;5.478;2023-02-28T05:48:48;102916.31;;;19.40;31.42
68366;BME280;55283;51.466;5.478;2023-02-28T05:51:13;102913.53;;;19.40;31.60
68366;BME280;55283;51.466;5.478;2023-02-28T05:53:39;102913.59;;;19.43;31.33
68366;BME280;55283;51.466;5.478;2023-02-28T05:56:04;102922.78;;;19.44;31.28
68366;BME280;55283;51.466;5.478;2023-02-28T05:58:30;102918.34;;;19.43;31.37
68366;BME280;55283;51.466;5.478;2023-02-28T06:00:59;102914.78;;;19.46;31.42
68366;BME280;55283;51.466;5.478;2023-02-28T06:03:26;102908.38;;;19.45;31.39
68366;BME280;55283;51.466;5.478;2023-02-28T06:05:54;102914.78;;;19.46;31.40
68366;BME280;55283;51.466;5.478;2023-02-28T06:08:19;102909.63;;;19.48;31.23
68366;BME280;55283;51.466;5.478;2023-02-28T06:10:45;102920.81;;;19.48;31.08
68366;BME280;55283;51.466;5.478;2023-02-28T06:13:10;102917.22;;;19.51;30.98
68366;BME280;55283;51.466;5.478;2023-02-28T06:15:37;102922.00;;;19.47;31.23
68366;BME280;55283;51.466;5.478;2023-02-28T06:18:03;102921.19;;;19.47;30.86
68366;BME280;55283;51.466;5.478;2023-02-28T06:20:29;102930.06;;;19.52;30.96
68366;BME280;55283;51.466;5.478;2023-02-28T06:22:56;102927.63;;;19.51;30.67
68366;BME280;55283;51.466;5.478;2023-02-28T06:25:24;102927.16;;;19.45;30.86
68366;BME280;55283;51.466;5.478;2023-02-28T06:27:50;102918.34;;;19.43;30.57
68366;BME280;55283;51.466;5.478;2023-02-28T06:30:15;102933.16;;;19.43;30.97
68366;BME280;55283;51.466;5.478;2023-02-28T06:32:41;102935.56;;;19.45;31.29
68366;BME280;55283;51.466;5.478;2023-02-28T06:35:07;102926.78;;;19.47;31.65
68366;BME280;55283;51.466;5.478;2023-02-28T06:37:32;102933.59;;;19.49;31.59
68366;BME280;55283;51.466;5.478;2023-02-28T06:40:00;102937.22;;;19.50;31.61
68366;BME280;55283;51.466;5.478;2023-02-28T06:42:26;102938.00;;;19.50;31.78
68366;BME280;55283;51.466;5.478;2023-02-28T06:44:56;102933.25;;;19.54;32.08
68366;BME280;55283;51.466;5.478;2023-02-28T06:47:22;102931.22;;;19.51;31.89
68366;BME280;55283;51.466;5.478;2023-02-28T06:49:48;102935.66;;;19.52;32.20
68366;BME280;55283;51.466;5.478;2023-02-28T06:52:14;102935.22;;;19.50;32.15
68366;BME280;55283;51.466;5.478;2023-02-28T06:54:39;102943.59;;;19.50;32.37
68366;BME280;55283;51.466;5.478;2023-02-28T06:57:08;102938.53;;;19.59;32.62
68366;BME280;55283;51.466;5.478;2023-02-28T06:59:33;102940.13;;;19.60;32.43
68366;BME280;55283;51.466;5.478;2023-02-28T07:02:00;102939.34;;;19.63;32.23
68366;BME280;55283;51.466;5.478;2023-02-28T07:04:29;102943.34;;;19.62;32.56
68366;BME280;55283;51.466;5.478;2023-02-28T07:06:55;102949.72;;;19.59;33.42
68366;BME280;55283;51.466;5.478;2023-02-28T07:09:23;102953.34;;;19.63;33.21
68366;BME280;55283;51.466;5.478;2023-02-28T07:11:48;102962.13;;;19.62;33.90
68366;BME280;55283;51.466;5.478;2023-02-28T07:14:14;102968.53;;;19.62;33.26
68366;BME280;55283;51.466;5.478;2023-02-28T07:16:39;102969.63;;;19.54;32.94
68366;BME280;55283;51.466;5.478;2023-02-28T07:19:05;102960.72;;;19.45;32.90
68366;BME280;55283;51.466;5.478;2023-02-28T07:21:30;102966.09;;;19.23;29.10
68366;BME280;55283;51.466;5.478;2023-02-28T07:23:56;102957.38;;;18.95;27.70
68366;BME280;55283;51.466;5.478;2023-02-28T07:26:22;102964.28;;;18.74;26.34
68366;BME280;55283;51.466;5.478;2023-02-28T07:28:48;102968.22;;;18.47;24.91
68366;BME280;55283;51.466;5.478;2023-02-28T07:31:14;102962.44;;;18.32;24.82
68366;BME280;55283;51.466;5.478;2023-02-28T07:33:40;102978.91;;;18.15;23.38
68366;BME280;55283;51.466;5.478;2023-02-28T07:36:11;102992.06;;;18.14;25.01
68366;BME280;55283;51.466;5.478;2023-02-28T07:38:43;102970.31;;;18.27;26.50
68366;BME280;55283;51.466;5.478;2023-02-28T07:41:09;102973.41;;;18.45;26.68
68366;BME280;55283;51.466;5.478;2023-02-28T07:43:35;102974.78;;;18.58;27.30
68366;BME280;55283;51.466;5.478;2023-02-28T07:46:09;102969.44;;;18.72;27.41
68366;BME280;55283;51.466;5.478;2023-02-28T07:48:40;102975.53;;;18.82;27.84
68366;BME280;55283;51.466;5.478;2023-02-28T07:51:08;102970.91;;;18.93;28.25
68366;BME280;55283;51.466;5.478;2023-02-28T07:53:34;102977.44;;;19.04;28.40
68366;BME280;55283;51.466;5.478;2023-02-28T07:56:01;102979.47;;;19.07;28.73
68366;BME280;55283;51.466;5.478;2023-02-28T07:58:27;102983.53;;;19.13;28.43
68366;BME280;55283;51.466;5.478;2023-02-28T08:00:56;102989.16;;;19.17;28.22
68366;BME280;55283;51.466;5.478;2023-02-28T08:03:23;102981.69;;;19.25;29.02
68366;BME280;55283;51.466;5.478;2023-02-28T08:05:49;102983.72;;;19.28;29.15
68366;BME280;55283;51.466;5.478;2023-02-28T08:08:15;102991.84;;;19.40;29.59
68366;BME280;55283;51.466;5.478;2023-02-28T08:10:43;102986.69;;;19.45;29.66
68366;BME280;55283;51.466;5.478;2023-02-28T08:13:09;102994.38;;;19.52;29.42
68366;BME280;55283;51.466;5.478;2023-02-28T08:15:36;102986.09;;;19.59;29.54
68366;BME280;55283;51.466;5.478;2023-02-28T08:18:02;102991.34;;;19.64;29.40
68366;BME280;55283;51.466;5.478;2023-02-28T08:20:27;102993.41;;;19.71;29.94
68366;BME280;55283;51.466;5.478;2023-02-28T08:22:53;102988.63;;;19.75;29.56
68366;BME280;55283;51.466;5.478;2023-02-28T08:25:21;102984.66;;;19.76;29.59
68366;BME280;55283;51.466;5.478;2023-02-28T08:27:48;102991.06;;;19.77;29.32
68366;BME280;55283;51.466;5.478;2023-02-28T08:30:15;102989.47;;;19.76;29.42
68366;BME280;55283;51.466;5.478;2023-02-28T08:32:40;102984.66;;;19.76;29.49
68366;BME280;55283;51.466;5.478;2023-02-28T08:35:06;102981.09;;;19.79;29.39
68366;BME280;55283;51.466;5.478;2023-02-28T08:37:32;102976.72;;;19.82;29.53
68366;BME280;55283;51.466;5.478;2023-02-28T08:39:57;102981.13;;;19.83;29.76
68366;BME280;55283;51.466;5.478;2023-02-28T08:42:23;102981.53;;;19.85;29.76
68366;BME280;55283;51.466;5.478;2023-02-28T08:44:49;102984.03;;;19.94;29.60
68366;BME280;55283;51.466;5.478;2023-02-28T08:47:14;102986.81;;;19.94;29.54
68366;BME280;55283;51.466;5.478;2023-02-28T08:49:42;102979.66;;;19.96;29.54
68366;BME280;55283;51.466;5.478;2023-02-28T08:52:08;102982.47;;;20.00;29.88
68366;BME280;55283;51.466;5.478;2023-02-28T08:54:33;102976.91;;;20.03;29.91
68366;BME280;55283;51.466;5.478;2023-02-28T08:57:00;102978.56;;;20.08;29.87
68366;BME280;55283;51.466;5.478;2023-02-28T08:59:25;102973.34;;;20.10;29.57
68366;BME280;55283;51.466;5.478;2023-02-28T09:01:51;102971.41;;;20.18;29.63
68366;BME280;55283;51.466;5.478;2023-02-28T09:04:16;102973.44;;;20.21;29.54
68366;BME280;55283;51.466;5.478;2023-02-28T09:06:42;102981.03;;;20.20;29.71
68366;BME280;55283;51.466;5.478;2023-02-28T09:09:12;102979.47;;;20.23;29.77
68366;BME280;55283;51.466;5.478;2023-02-28T09:11:37;102978.69;;;20.26;29.89
68366;BME280;55283;51.466;5.478;2023-02-28T09:14:03;102981.91;;;20.28;30.07
68366;BME280;55283;51.466;5.478;2023-02-28T09:16:30;102980.72;;;20.32;30.05
68366;BME280;55283;51.466;5.478;2023-02-28T09:18:59;102977.53;;;20.34;29.78
68366;BME280;55283;51.466;5.478;2023-02-28T09:21:25;102988.41;;;20.39;29.44
68366;BME280;55283;51.466;5.478;2023-02-28T09:23:56;102975.97;;;20.37;29.97
68366;BME280;55283;51.466;5.478;2023-02-28T09:26:26;102981.63;;;20.40;30.35
68366;BME280;55283;51.466;5.478;2023-02-28T09:28:54;102968.44;;;20.44;30.48
68366;BME280;55283;51.466;5.478;2023-02-28T09:31:26;102974.84;;;20.45;30.15
68366;BME280;55283;51.466;5.478;2023-02-28T09:33:54;102975.69;;;20.49;30.32
68366;BME280;55283;51.466;5.478;2023-02-28T09:36:22;102984.91;;;20.53;29.99
68366;BME280;55283;51.466;5.478;2023-02-28T09:38:47;102979.31;;;20.56;29.99
68366;BME280;55283;51.466;5.478;2023-02-28T09:41:15;102974.53;;;20.57;30.07
68366;BME280;55283;51.466;5.478;2023-02-28T09:43:47;102976.53;;;20.60;30.42
68366;BME280;55283;51.466;5.478;2023-02-28T09:46:40;102975.75;;;20.63;30.33
68366;BME280;55283;51.466;5.478;2023-02-28T09:49:14;102990.16;;;20.65;30.15
68366;BME280;55283;51.466;5.478;2023-02-28T09:54:22;102972.97;;;20.67;30.59
68366;BME280;55283;51.466;5.478;2023-02-28T09:56:59;102977.00;;;20.69;30.92
68366;BME280;55283;51.466;5.478;2023-02-28T09:59:55;102968.97;;;20.71;30.56
68366;BME280;55283;51.466;5.478;2023-02-28T10:05:19;102981.03;;;20.75;30.25
68366;BME280;55283;51.466;5.478;2023-02-28T10:08:00;102965.00;;;20.76;30.02
68366;BME280;55283;51.466;5.478;2023-02-28T10:13:07;102959.81;;;20.78;30.32
68366;BME280;55283;51.466;5.478;2023-02-28T10:15:38;102970.25;;;20.77;30.13
68366;BME280;55283;51.466;5.478;2023-02-28T10:18:06;102962.63;;;20.78;30.00
68366;BME280;55283;51.466;5.478;2023-02-28T10:20:39;102952.22;;;20.78;30.07
68366;BME280;55283;51.466;5.478;2023-02-28T10:25:50;102955.44;;;20.80;30.39
68366;BME280;55283;51.466;5.478;2023-02-28T10:28:30;102964.22;;;20.83;29.94
68366;BME280;55283;51.466;5.478;2023-02-28T10:30:56;102958.25;;;20.80;29.90
68366;BME280;55283;51.466;5.478;2023-02-28T10:33:35;102939.03;;;20.86;29.79
68366;BME280;55283;51.466;5.478;2023-02-28T10:36:03;102944.66;;;20.90;29.71
68366;BME280;55283;51.466;5.478;2023-02-28T10:38:38;102944.28;;;20.95;30.35
68366;BME280;55283;51.466;5.478;2023-02-28T10:44:14;102951.50;;;21.03;30.16
68366;BME280;55283;51.466;5.478;2023-02-28T10:46:41;102949.53;;;21.03;29.78
68366;BME280;55283;51.466;5.478;2023-02-28T10:49:33;102939.09;;;21.04;30.00
68366;BME280;55283;51.466;5.478;2023-02-28T10:52:02;102955.94;;;21.04;30.08
68366;BME280;55283;51.466;5.478;2023-02-28T10:54:33;102938.69;;;21.06;29.91
68366;BME280;55283;51.466;5.478;2023-02-28T10:57:18;102943.13;;;21.14;29.88
68366;BME280;55283;51.466;5.478;2023-02-28T10:59:50;102933.91;;;21.10;29.78
68366;BME280;55283;51.466;5.478;2023-02-28T11:02:32;102944.34;;;21.13;29.83
68366;BME280;55283;51.466;5.478;2023-02-28T11:04:58;102925.13;;;21.15;28.21
68366;BME280;55283;51.466;5.478;2023-02-28T11:07:28;102923.94;;;21.16;29.10
68366;BME280;55283;51.466;5.478;2023-02-28T11:09:57;102918.34;;;21.19;28.66
68366;BME280;55283;51.466;5.478;2023-02-28T11:12:36;102924.75;;;21.23;29.06
68366;BME280;55283;51.466;5.478;2023-02-28T11:15:14;102925.97;;;21.26;29.66
68366;BME280;55283;51.466;5.478;2023-02-28T11:17:44;102923.19;;;21.30;28.03
68366;BME280;55283;51.466;5.478;2023-02-28T11:20:22;102921.56;;;21.32;28.68
68366;BME280;55283;51.466;5.478;2023-02-28T11:22:50;102917.97;;;21.35;28.52
68366;BME280;55283;51.466;5.478;2023-02-28T11:25:25;102920.38;;;21.33;28.12
68366;BME280;55283;51.466;5.478;2023-02-28T11:27:54;102915.97;;;21.36;27.43
68366;BME280;55283;51.466;5.478;2023-02-28T11:33:01;;;;21.37;
68366;BME280;55283;51.466;5.478;2023-02-28T11:35:41;102906.75;;;21.35;28.63
68366;BME280;55283;51.466;5.478;2023-02-28T11:38:12;102907.56;;;21.36;29.05
68366;BME280;55283;51.466;5.478;2023-02-28T11:46:06;102905.56;;;21.36;30.76
68366;BME280;55283;51.466;5.478;2023-02-28T11:48:46;102901.53;;;21.37;30.68
68366;BME280;55283;51.466;5.478;2023-02-28T11:51:40;102901.97;;;21.36;31.25
68366;BME280;55283;51.466;5.478;2023-02-28T11:54:23;102907.94;;;21.34;31.51
68366;BME280;55283;51.466;5.478;2023-02-28T11:57:00;102905.16;;;21.34;30.95
68366;BME280;55283;51.466;5.478;2023-02-28T12:10:26;102889.13;;;21.45;31.30
68366;BME280;55283;51.466;5.478;2023-02-28T12:13:07;102891.94;;;21.45;31.72
68366;BME280;55283;51.466;5.478;2023-02-28T12:18:24;102877.09;;;21.48;31.85
68366;BME280;55283;51.466;5.478;2023-02-28T12:21:35;102884.31;;;21.50;31.93
68366;BME280;55283;51.466;5.478;2023-02-28T12:27:16;102885.53;;;21.48;32.10
68366;BME280;55283;51.466;5.478;2023-02-28T12:29:53;102881.13;;;21.51;32.07
68366;BME280;55283;51.466;5.478;2023-02-28T12:35:11;102881.91;;;21.52;32.07
68366;BME280;55283;51.466;5.478;2023-02-28T12:37:52;102863.47;;;21.54;32.25
68366;BME280;55283;51.466;5.478;2023-02-28T12:40:26;102862.69;;;21.54;32.12
68366;BME280;55283;51.466;5.478;2023-02-28T12:43:00;102853.06;;;21.55;32.18
68366;BME280;55283;51.466;5.478;2023-02-28T12:45:40;102853.84;;;21.55;32.16
68366;BME280;55283;51.466;5.478;2023-02-28T12:48:11;102854.66;;;21.56;32.23
68366;BME280;55283;51.466;5.478;2023-02-28T12:50:39;102854.28;;;21.54;32.38
68366;BME280;55283;51.466;5.478;2023-02-28T12:53:52;102854.28;;;21.50;32.01
68366;BME280;55283;51.466;5.478;2023-02-28T12:58:48;102840.63;;;21.48;31.96
68366;BME280;55283;51.466;5.478;2023-02-28T13:09:57;102840.66;;;21.41;32.22
68366;BME280;55283;51.466;5.478;2023-02-28T13:12:23;102828.59;;;21.41;32.24
68366;BME280;55283;51.466;5.478;2023-02-28T13:14:50;102827.41;;;21.42;32.36
68366;BME280;55283;51.466;5.478;2023-02-28T13:17:20;102830.59;;;21.44;32.34
68366;BME280;55283;51.466;5.478;2023-02-28T13:19:57;102818.56;;;21.43;32.49
68366;BME280;55283;51.466;5.478;2023-02-28T13:22:49;102821.38;;;21.43;32.34
68366;BME280;55283;51.466;5.478;2023-02-28T13:27:48;102819.38;;;21.40;32.35
68366;BME280;55283;51.466;5.478;2023-02-28T13:33:33;102810.56;;;21.42;32.61
68366;BME280;55283;51.466;5.478;2023-02-28T13:38:59;102817.38;;;21.37;32.70
68366;BME280;55283;51.466;5.478;2023-02-28T13:44:20;102807.75;;;21.35;32.60
68366;BME280;55283;51.466;5.478;2023-02-28T13:54:39;102793.31;;;21.29;33.34
68366;BME280;55283;51.466;5.478;2023-02-28T14:05:30;102792.94;;;21.20;33.42
68366;BME280;55283;51.466;5.478;2023-02-28T14:08:08;102802.97;;;21.21;33.64
68366;BME280;55283;51.466;5.478;2023-02-28T14:10:44;102801.34;;;21.20;33.48
68366;BME280;55283;51.466;5.478;2023-02-28T14:13:46;102806.16;;;21.19;33.39
68366;BME280;55283;51.466;5.478;2023-02-28T14:16:45;102799.34;;;21.20;33.50
68366;BME280;55283;51.466;5.478;2023-02-28T14:19:14;102789.72;;;21.18;33.45
68366;BME280;55283;51.466;5.478;2023-02-28T14:28:11;102801.31;;;21.13;33.73
68366;BME280;55283;51.466;5.478;2023-02-28T14:33:26;102792.50;;;21.11;33.41
68366;BME280;55283;51.466;5.478;2023-02-28T14:36:00;102778.88;;;21.09;33.65
68366;BME280;55283;51.466;5.478;2023-02-28T14:38:29;102779.69;;;21.10;33.41
68366;BME280;55283;51.466;5.478;2023-02-28T14:41:11;102782.09;;;21.08;33.52
68366;BME280;55283;51.466;5.478;2023-02-28T14:43:48;102784.88;;;21.04;33.69
68366;BME280;55283;51.466;5.478;2023-02-28T14:46:14;102785.28;;;21.02;33.77
68366;BME280;55283;51.466;5.478;2023-02-28T14:48:45;102778.06;;;21.01;33.78
68366;BME280;55283;51.466;5.478;2023-02-28T14:51:12;102781.69;;;20.98;33.76
68366;BME280;55283;51.466;5.478;2023-02-28T14:53:43;102773.66;;;21.00;33.66
68366;BME280;55283;51.466;5.478;2023-02-28T14:56:23;102773.25;;;20.98;33.73
68366;BME280;55283;51.466;5.478;2023-02-28T14:58:55;102775.28;;;20.98;33.58
68366;BME280;55283;51.466;5.478;2023-02-28T15:01:23;102773.66;;;20.93;33.75
68366;BME280;55283;51.466;5.478;2023-02-28T15:04:06;102775.63;;;20.86;33.88
68366;BME280;55283;51.466;5.478;2023-02-28T15:06:35;102763.63;;;20.85;33.71
68366;BME280;55283;51.466;5.478;2023-02-28T15:09:16;102764.41;;;20.86;32.92
68366;BME280;55283;51.466;5.478;2023-02-28T15:11:49;102761.22;;;20.84;33.50
68366;BME280;55283;51.466;5.478;2023-02-28T15:14:20;102766.84;;;20.84;33.67